Nissan Maru — JG5485 — position and weather

sailwx.info

Track history (hours):
 
Tides and Currents Weather Stations Pressure Air Temp Water Temp Dewpoint Dewpoint Depression Visibility Wind Speed Wind Dir Waves Ship Positions

Nissan Maru

Last reported at 2015-Apr-28 03:29 UTC. Time now 2015-Apr-28 03:46 UTC.
Position N 35°29' E 139°47'.

Length 108 m; draft 7.2 m.

Type: Cargo ship. MMSI: 431400593.

Date/timePositionNaut miles runAvg speedWind from/ knotsBaromVisibWave heightAir tempDewpointWater temp
2015-Apr-28 03:29N 35°29' E 139°47'0 0.0
2015-Apr-28 02:32N 35°29' E 139°47'0 0.0
2015-Apr-28 01:32N 35°29' E 139°47'0 0.0
2015-Apr-28 00:32N 35°29' E 139°47'0 0.0
2015-Apr-27 23:32N 35°29' E 139°47'0 0.0
2015-Apr-27 22:32N 35°29' E 139°47'0 0.1
2015-Apr-27 21:32N 35°29' E 139°47'0 0.1
2015-Apr-27 20:32N 35°29' E 139°47'0 0.0
2015-Apr-27 19:32N 35°29' E 139°47'0 0.0
2015-Apr-27 18:32N 35°29' E 139°47'0 0.0
2015-Apr-27 17:32N 35°29' E 139°47'0 0.0
2015-Apr-27 16:29N 35°29' E 139°47'0 0.0
2015-Apr-27 15:32N 35°29' E 139°47'0 0.0
2015-Apr-27 14:32N 35°29' E 139°47'0 0.1
2015-Apr-27 13:32N 35°29' E 139°47'2 2.1
2015-Apr-27 12:33N 35°29' E 139°44'0 0.0
2015-Apr-27 11:33N 35°29' E 139°44'0 0.0
2015-Apr-27 10:33N 35°29' E 139°44'0 0.0
2015-Apr-27 09:33N 35°29' E 139°44'0 0.0
2015-Apr-27 08:30N 35°29' E 139°44'0 0.0
2015-Apr-27 07:33N 35°29' E 139°44'0 0.0
2015-Apr-27 06:33N 35°29' E 139°44'0 0.0
2015-Apr-27 05:33N 35°29' E 139°44'0 0.0
2015-Apr-27 04:33N 35°29' E 139°44'0 0.0
2015-Apr-27 03:33N 35°29' E 139°44'0 0.0
2015-Apr-27 02:33N 35°29' E 139°44'0 0.0
2015-Apr-27 01:30N 35°29' E 139°44'0 0.1
2015-Apr-27 00:33N 35°29' E 139°44'7 7.2
2015-Apr-26 23:34N 35°22' E 139°44'0 0.1
2015-Apr-26 22:33N 35°22' E 139°44'0 0.0
2015-Apr-26 21:33N 35°22' E 139°44'0 0.0
2015-Apr-26 20:33N 35°22' E 139°44'3 3.5
2015-Apr-26 19:34N 35°19' E 139°44'1110.7
2015-Apr-26 18:34N 35°08' E 139°45'1212.0
2015-Apr-26 17:32N 34°59' E 139°35'  
2015-Apr-24 06:23N 34°54' E 139°17'1011.7
2015-Apr-24 05:33N 34°58' E 139°28'1212.2
2015-Apr-24 04:33N 35°06' E 139°40'1211.9
2015-Apr-24 03:33N 35°17' E 139°45'1111.1
2015-Apr-24 02:33N 35°28' E 139°45'2 1.6
2015-Apr-24 01:32N 35°29' E 139°44'0 0.0
2015-Apr-24 00:32N 35°29' E 139°44'0 0.0
2015-Apr-23 23:32N 35°29' E 139°44'0 0.0
2015-Apr-23 22:32N 35°29' E 139°44'0 0.0
2015-Apr-23 21:32N 35°29' E 139°44'0 0.0
2015-Apr-23 20:29N 35°29' E 139°44'0 0.0
2015-Apr-23 19:32N 35°29' E 139°44'0 0.0
2015-Apr-23 18:32N 35°29' E 139°44'0 0.0
2015-Apr-23 17:29N 35°29' E 139°44'0 0.0
2015-Apr-23 16:29N 35°29' E 139°44'0 0.0
2015-Apr-23 15:32N 35°29' E 139°44'0 0.0
2015-Apr-23 14:29N 35°29' E 139°44'0 0.0
2015-Apr-23 13:32N 35°29' E 139°44'2 2.4
2015-Apr-23 12:33N 35°27' E 139°46'1110.8
2015-Apr-23 11:33N 35°16' E 139°46'1111.2
2015-Apr-23 10:33N 35°05' E 139°43'  
2015-Apr-19 14:33N 34°60' E 139°29'1312.7
2015-Apr-19 13:33N 35°07' E 139°41'1111.3
2015-Apr-19 12:33N 35°18' E 139°44'1111.1
2015-Apr-19 11:33N 35°29' E 139°44'0 0.1
2015-Apr-19 10:33N 35°29' E 139°44'0 0.0
2015-Apr-19 09:33N 35°29' E 139°44'0 0.0
2015-Apr-19 08:33N 35°29' E 139°44'0 0.0
2015-Apr-19 07:33N 35°29' E 139°44'0 0.0
2015-Apr-19 06:33N 35°29' E 139°44'0 0.0
2015-Apr-19 05:33N 35°29' E 139°44'0 0.0
2015-Apr-19 04:33N 35°29' E 139°44'0 0.0
2015-Apr-19 03:30N 35°29' E 139°44'0 0.0
2015-Apr-19 02:33N 35°29' E 139°44'0 0.0
2015-Apr-19 01:33N 35°29' E 139°44'0 0.0
2015-Apr-19 00:33N 35°29' E 139°44'0 0.0
2015-Apr-18 23:33N 35°29' E 139°44'0 0.0
2015-Apr-18 22:33N 35°29' E 139°44'2 2.3
2015-Apr-18 21:33N 35°27' E 139°45'4 4.5
2015-Apr-18 20:33N 35°23' E 139°45'0 0.0
2015-Apr-18 19:32N 35°23' E 139°45'0 0.1
2015-Apr-18 18:32N 35°23' E 139°45'0 0.0
2015-Apr-18 17:32N 35°23' E 139°45'7 7.6
2015-Apr-18 16:33N 35°16' E 139°47'1211.7
2015-Apr-18 15:33N 35°04' E 139°43'1212.2
2015-Apr-18 14:33N 34°57' E 139°31'  
Track history (hours):
 
Tides and Currents Weather Stations Pressure Air Temp Water Temp Dewpoint Dewpoint Depression Visibility Wind Speed Wind Dir Waves Ship Positions

Nissan Maru

Last reported at 2015-Apr-28 03:29 UTC. Time now 2015-Apr-28 03:46 UTC.
Position N 35°29' E 139°47'.

Length 108 m; draft 7.2 m.

Type: Cargo ship. MMSI: 431400593.

Date/timePositionNaut miles runAvg speedWind from/ knotsBaromVisibWave heightAir tempDewpointWater temp
2015-Apr-28 03:29N 35°29' E 139°47'0 0.0
2015-Apr-28 02:32N 35°29' E 139°47'0 0.0
2015-Apr-28 01:32N 35°29' E 139°47'0 0.0
2015-Apr-28 00:32N 35°29' E 139°47'0 0.0
2015-Apr-27 23:32N 35°29' E 139°47'0 0.0
2015-Apr-27 22:32N 35°29' E 139°47'0 0.1
2015-Apr-27 21:32N 35°29' E 139°47'0 0.1
2015-Apr-27 20:32N 35°29' E 139°47'0 0.0
2015-Apr-27 19:32N 35°29' E 139°47'0 0.0
2015-Apr-27 18:32N 35°29' E 139°47'0 0.0
2015-Apr-27 17:32N 35°29' E 139°47'0 0.0
2015-Apr-27 16:29N 35°29' E 139°47'0 0.0
2015-Apr-27 15:32N 35°29' E 139°47'0 0.0
2015-Apr-27 14:32N 35°29' E 139°47'0 0.1
2015-Apr-27 13:32N 35°29' E 139°47'2 2.1
2015-Apr-27 12:33N 35°29' E 139°44'0 0.0
2015-Apr-27 11:33N 35°29' E 139°44'0 0.0
2015-Apr-27 10:33N 35°29' E 139°44'0 0.0
2015-Apr-27 09:33N 35°29' E 139°44'0 0.0
2015-Apr-27 08:30N 35°29' E 139°44'0 0.0
2015-Apr-27 07:33N 35°29' E 139°44'0 0.0
2015-Apr-27 06:33N 35°29' E 139°44'0 0.0
2015-Apr-27 05:33N 35°29' E 139°44'0 0.0
2015-Apr-27 04:33N 35°29' E 139°44'0 0.0
2015-Apr-27 03:33N 35°29' E 139°44'0 0.0
2015-Apr-27 02:33N 35°29' E 139°44'0 0.0
2015-Apr-27 01:30N 35°29' E 139°44'0 0.1
2015-Apr-27 00:33N 35°29' E 139°44'7 7.2
2015-Apr-26 23:34N 35°22' E 139°44'0 0.1
2015-Apr-26 22:33N 35°22' E 139°44'0 0.0
2015-Apr-26 21:33N 35°22' E 139°44'0 0.0
2015-Apr-26 20:33N 35°22' E 139°44'3 3.5
2015-Apr-26 19:34N 35°19' E 139°44'1110.7
2015-Apr-26 18:34N 35°08' E 139°45'1212.0
2015-Apr-26 17:32N 34°59' E 139°35'  
2015-Apr-24 06:23N 34°54' E 139°17'1011.7
2015-Apr-24 05:33N 34°58' E 139°28'1212.2
2015-Apr-24 04:33N 35°06' E 139°40'1211.9
2015-Apr-24 03:33N 35°17' E 139°45'1111.1
2015-Apr-24 02:33N 35°28' E 139°45'2 1.6
2015-Apr-24 01:32N 35°29' E 139°44'0 0.0
2015-Apr-24 00:32N 35°29' E 139°44'0 0.0
2015-Apr-23 23:32N 35°29' E 139°44'0 0.0
2015-Apr-23 22:32N 35°29' E 139°44'0 0.0
2015-Apr-23 21:32N 35°29' E 139°44'0 0.0
2015-Apr-23 20:29N 35°29' E 139°44'0 0.0
2015-Apr-23 19:32N 35°29' E 139°44'0 0.0
2015-Apr-23 18:32N 35°29' E 139°44'0 0.0
2015-Apr-23 17:29N 35°29' E 139°44'0 0.0
2015-Apr-23 16:29N 35°29' E 139°44'0 0.0
2015-Apr-23 15:32N 35°29' E 139°44'0 0.0
2015-Apr-23 14:29N 35°29' E 139°44'0 0.0
2015-Apr-23 13:32N 35°29' E 139°44'2 2.4
2015-Apr-23 12:33N 35°27' E 139°46'1110.8
2015-Apr-23 11:33N 35°16' E 139°46'1111.2
2015-Apr-23 10:33N 35°05' E 139°43'  
2015-Apr-19 14:33N 34°60' E 139°29'1312.7
2015-Apr-19 13:33N 35°07' E 139°41'1111.3
2015-Apr-19 12:33N 35°18' E 139°44'1111.1
2015-Apr-19 11:33N 35°29' E 139°44'0 0.1
2015-Apr-19 10:33N 35°29' E 139°44'0 0.0
2015-Apr-19 09:33N 35°29' E 139°44'0 0.0
2015-Apr-19 08:33N 35°29' E 139°44'0 0.0
2015-Apr-19 07:33N 35°29' E 139°44'0 0.0
2015-Apr-19 06:33N 35°29' E 139°44'0 0.0
2015-Apr-19 05:33N 35°29' E 139°44'0 0.0
2015-Apr-19 04:33N 35°29' E 139°44'0 0.0
2015-Apr-19 03:30N 35°29' E 139°44'0 0.0
2015-Apr-19 02:33N 35°29' E 139°44'0 0.0
2015-Apr-19 01:33N 35°29' E 139°44'0 0.0
2015-Apr-19 00:33N 35°29' E 139°44'0 0.0
2015-Apr-18 23:33N 35°29' E 139°44'0 0.0
2015-Apr-18 22:33N 35°29' E 139°44'2 2.3
2015-Apr-18 21:33N 35°27' E 139°45'4 4.5
2015-Apr-18 20:33N 35°23' E 139°45'0 0.0
2015-Apr-18 19:32N 35°23' E 139°45'0 0.1
2015-Apr-18 18:32N 35°23' E 139°45'0 0.0
2015-Apr-18 17:32N 35°23' E 139°45'7 7.6
2015-Apr-18 16:33N 35°16' E 139°47'1211.7
2015-Apr-18 15:33N 35°04' E 139°43'1212.2
2015-Apr-18 14:33N 34°57' E 139°31'  

Dump ship's entire track history